createdAt,value
2019-05-14T00:00:53.462Z,80.69
2019-05-14T00:01:53.445Z,81.96
2019-05-14T00:02:53.447Z,81.76
2019-05-14T00:03:53.445Z,81.86
2019-05-14T00:04:53.423Z,81.82
2019-05-14T00:05:53.545Z,81.76
2019-05-14T00:06:53.401Z,81.96
2019-05-14T00:07:53.385Z,82.28
2019-05-14T00:08:53.396Z,82.28
2019-05-14T00:09:53.372Z,82.79
2019-05-14T00:10:53.360Z,82.38
2019-05-14T00:11:53.338Z,82.48
2019-05-14T00:12:53.337Z,82.28
2019-05-14T00:13:53.336Z,82.48
2019-05-14T00:14:53.324Z,82.14
2019-05-14T00:15:53.304Z,82.07
2019-05-14T00:16:53.281Z,81.76
2019-05-14T00:17:53.284Z,82.38
2019-05-14T00:18:53.263Z,83.14
2019-05-14T00:20:06.274Z,83.20
2019-05-14T00:20:53.250Z,83.10
2019-05-14T00:21:53.224Z,83.41
2019-05-14T00:22:53.228Z,83.65
2019-05-14T00:23:53.215Z,82.52
2019-05-14T00:24:53.221Z,83.76
2019-05-14T00:25:53.184Z,83.62
2019-05-14T00:26:53.187Z,83.76
2019-05-14T00:27:53.168Z,83.10
2019-05-14T00:28:53.172Z,83.20
2019-05-14T00:29:53.167Z,83.14
2019-05-14T00:30:53.128Z,83.76
2019-05-14T00:31:53.123Z,82.10
2019-05-14T00:32:53.123Z,83.76
2019-05-14T00:33:53.110Z,83.34
2019-05-14T00:34:53.102Z,83.76
2019-05-14T00:35:53.089Z,83.80
2019-05-14T00:36:53.067Z,84.00
2019-05-14T00:37:53.065Z,84.00
2019-05-14T00:38:53.049Z,84.11
2019-05-14T00:39:53.059Z,83.90
2019-05-14T00:40:53.029Z,84.42
2019-05-14T00:41:53.025Z,84.42
2019-05-14T00:42:53.406Z,84.94
2019-05-14T00:43:52.996Z,85.04
2019-05-14T00:44:57.751Z,84.89
2019-05-14T00:45:52.971Z,84.48
2019-05-14T00:46:52.965Z,84.48
2019-05-14T00:47:52.953Z,83.76
2019-05-14T00:48:52.943Z,84.31
2019-05-14T00:49:52.950Z,84.42
2019-05-14T00:50:52.918Z,84.42
2019-05-14T00:51:52.916Z,84.21
2019-05-14T00:52:52.905Z,84.83
2019-05-14T00:53:52.888Z,84.87
2019-05-14T00:54:52.899Z,85.04
2019-05-14T00:55:52.877Z,85.18
2019-05-14T00:56:52.872Z,85.80
2019-05-14T00:57:52.850Z,85.91
2019-05-14T00:58:52.839Z,85.91
2019-05-14T00:59:52.829Z,85.97
2019-05-14T01:00:52.817Z,86.11
2019-05-14T01:01:52.807Z,85.49
2019-05-14T01:04:01.993Z,85.76
2019-05-14T01:05:02.984Z,86.07
2019-05-14T01:06:03.239Z,86.63
2019-05-14T01:07:02.949Z,86.21
2019-05-14T01:08:02.935Z,86.32
2019-05-14T01:09:02.923Z,86.49
2019-05-14T01:10:02.926Z,86.32
2019-05-14T01:11:02.913Z,86.28
2019-05-14T01:12:02.906Z,86.49
2019-05-14T01:13:02.887Z,85.35
2019-05-14T01:14:02.877Z,86.24
2019-05-14T01:15:10.221Z,86.24
2019-05-14T01:16:02.855Z,86.24
2019-05-14T01:17:02.855Z,85.72
2019-05-14T01:18:02.827Z,85.93
2019-05-14T01:19:02.817Z,85.93
2019-05-14T01:20:03.261Z,85.52
2019-05-14T01:21:02.804Z,86.44
2019-05-14T01:22:02.793Z,85.86
2019-05-14T01:23:02.774Z,85.83
2019-05-14T01:24:02.769Z,85.83
2019-05-14T01:25:02.775Z,85.83
2019-05-14T01:26:02.747Z,86.24
2019-05-14T01:27:02.730Z,85.72
2019-05-14T01:28:02.722Z,85.31
2019-05-14T01:29:02.721Z,85.83
2019-05-14T01:30:02.840Z,85.31
2019-05-14T01:31:02.701Z,86.24
2019-05-14T01:32:02.681Z,86.03
2019-05-14T01:33:02.673Z,86.24
2019-05-14T01:34:02.654Z,86.18
2019-05-14T01:35:02.649Z,85.86
2019-05-14T01:36:02.656Z,86.32
2019-05-14T01:37:02.717Z,85.76
2019-05-14T01:38:02.895Z,86.63
2019-05-14T01:39:02.603Z,86.32
2019-05-14T01:40:02.601Z,86.32
2019-05-14T01:41:02.604Z,87.35
2019-05-14T01:42:02.783Z,86.36
2019-05-14T01:43:02.816Z,86.36
2019-05-14T01:44:02.552Z,86.46
2019-05-14T01:45:02.750Z,86.60
2019-05-14T01:46:02.554Z,87.54
2019-05-14T01:47:02.509Z,87.74
2019-05-14T01:48:02.504Z,87.64
2019-05-14T01:49:02.505Z,88.88
2019-05-14T01:50:02.493Z,88.06
2019-05-14T01:51:02.504Z,87.95
2019-05-14T01:52:02.463Z,87.95
2019-05-14T01:53:03.226Z,87.60
2019-05-14T01:54:02.438Z,88.22
2019-05-14T01:55:02.426Z,88.26
2019-05-14T01:56:02.438Z,88.06
2019-05-14T01:57:02.412Z,88.67
2019-05-14T01:58:02.548Z,88.06
2019-05-14T01:59:02.391Z,88.88
2019-05-14T02:00:02.490Z,88.98
2019-05-14T02:01:02.383Z,88.92
2019-05-14T02:02:02.570Z,88.82
2019-05-14T02:03:02.348Z,88.51
2019-05-14T02:04:02.471Z,88.86
2019-05-14T02:05:02.326Z,88.76
2019-05-14T02:06:02.330Z,89.79
2019-05-14T02:07:02.497Z,90.72
2019-05-14T02:08:02.294Z,90.31
2019-05-14T02:09:02.279Z,90.37
2019-05-14T02:10:02.273Z,90.68
2019-05-14T02:11:02.284Z,90.93
2019-05-14T02:12:02.434Z,90.20
2019-05-14T02:13:02.242Z,90.16
2019-05-14T02:14:02.569Z,90.26
2019-05-14T02:15:02.207Z,90.58
2019-05-14T02:16:02.852Z,89.86
2019-05-14T02:17:02.208Z,89.86
2019-05-14T02:18:02.505Z,90.37
2019-05-14T02:19:02.177Z,90.68
2019-05-14T02:20:02.296Z,90.26
2019-05-14T02:21:02.167Z,89.86
2019-05-14T02:22:02.310Z,89.89
2019-05-14T02:23:02.140Z,90.68
2019-05-14T02:24:02.218Z,90.37
2019-05-14T02:25:02.461Z,89.86
2019-05-14T02:26:02.731Z,90.26
2019-05-14T02:27:02.179Z,90.26
2019-05-14T02:28:02.076Z,90.26
2019-05-14T02:29:02.165Z,90.78
2019-05-14T02:30:02.371Z,90.47
2019-05-14T02:31:03.820Z,90.74
2019-05-14T02:32:02.056Z,90.53
2019-05-14T02:33:02.040Z,90.12
2019-05-14T02:34:02.019Z,90.02
2019-05-14T02:35:02.000Z,89.50
2019-05-14T02:36:01.998Z,90.23
2019-05-14T02:37:01.992Z,89.61
2019-05-14T02:38:01.971Z,89.40
2019-05-14T02:39:01.964Z,90.26
2019-05-14T02:40:01.970Z,89.54
2019-05-14T02:41:01.949Z,90.74
2019-05-14T02:42:01.957Z,89.86
2019-05-14T02:43:01.919Z,90.16
2019-05-14T02:44:01.907Z,90.78
2019-05-14T02:45:01.896Z,90.23
2019-05-14T02:46:11.265Z,90.99
2019-05-14T02:47:01.887Z,90.78
2019-05-14T02:48:01.867Z,90.64
2019-05-14T02:49:01.855Z,90.74
2019-05-14T02:50:01.853Z,90.23
2019-05-14T02:51:01.838Z,90.74
2019-05-14T02:52:01.829Z,89.61
2019-05-14T02:53:01.812Z,89.75
2019-05-14T02:54:01.801Z,89.65
2019-05-14T02:55:01.795Z,89.13
2019-05-14T02:56:01.783Z,89.75
2019-05-14T02:57:01.782Z,90.99
2019-05-14T02:58:01.754Z,90.89
2019-05-14T02:59:05.612Z,90.16
2019-05-14T03:00:01.747Z,90.68
2019-05-14T03:01:01.737Z,90.58
2019-05-14T03:02:01.733Z,90.83
2019-05-14T03:03:01.714Z,90.78
2019-05-14T03:05:10.891Z,92.03
2019-05-14T03:06:11.878Z,91.41
2019-05-14T03:07:11.881Z,90.74
2019-05-14T03:08:11.847Z,90.68
2019-05-14T03:09:11.839Z,90.16
2019-05-14T03:10:11.836Z,90.89
2019-05-14T03:11:11.819Z,91.03
2019-05-14T03:12:11.835Z,91.20
2019-05-14T03:13:11.802Z,91.51
2019-05-14T03:14:11.808Z,91.20
2019-05-14T03:15:11.782Z,92.03
2019-05-14T03:16:25.974Z,91.09
2019-05-14T03:17:12.158Z,91.14
2019-05-14T03:18:11.752Z,91.55
2019-05-14T03:19:11.728Z,91.82
2019-05-14T03:20:11.721Z,92.13
2019-05-14T03:21:11.723Z,91.61
2019-05-14T03:22:11.695Z,92.13
2019-05-14T03:23:18.197Z,91.09
2019-05-14T03:24:11.679Z,91.82
2019-05-14T03:25:11.664Z,91.82
2019-05-14T03:26:11.649Z,91.93
2019-05-14T03:27:11.654Z,91.20
2019-05-14T03:28:11.657Z,91.93
2019-05-14T03:29:11.624Z,91.67
2019-05-14T03:30:13.277Z,91.82
2019-05-14T03:31:13.102Z,92.13
2019-05-14T03:32:13.634Z,91.93
2019-05-14T03:33:13.487Z,91.67
2019-05-14T03:34:13.699Z,92.09
2019-05-14T03:35:13.473Z,91.57
2019-05-14T03:36:17.679Z,90.84
2019-05-14T03:37:13.508Z,90.68
2019-05-14T03:38:11.554Z,91.20
2019-05-14T03:39:11.515Z,90.78
2019-05-14T03:40:11.505Z,90.68
2019-05-14T03:41:14.107Z,91.24
2019-05-14T03:42:11.492Z,91.86
2019-05-14T03:43:11.499Z,91.97
2019-05-14T03:44:11.477Z,91.66
2019-05-14T03:45:11.448Z,91.66
2019-05-14T03:46:11.443Z,92.01
2019-05-14T03:47:11.427Z,92.74
2019-05-14T03:48:11.443Z,92.43
2019-05-14T03:49:11.406Z,92.63
2019-05-14T03:50:11.397Z,93.10
2019-05-14T03:51:11.386Z,92.43
2019-05-14T03:52:11.367Z,93.21
2019-05-14T03:53:11.389Z,93.00
2019-05-14T03:54:12.653Z,93.00
2019-05-14T03:55:11.362Z,92.38
2019-05-14T03:56:11.332Z,92.18
2019-05-14T03:57:11.328Z,93.00
2019-05-14T03:58:11.343Z,92.59
2019-05-14T03:59:11.399Z,92.90
2019-05-14T04:00:11.301Z,92.18
2019-05-14T04:01:11.322Z,92.38
2019-05-14T04:02:11.272Z,92.53
2019-05-14T04:03:11.265Z,93.04
2019-05-14T04:04:11.253Z,92.84
2019-05-14T04:05:11.259Z,93.00
2019-05-14T04:06:11.219Z,93.15
2019-05-14T04:07:11.222Z,93.04
2019-05-14T04:08:11.222Z,93.52
2019-05-14T04:09:11.197Z,93.62
2019-05-14T04:10:11.186Z,92.80
2019-05-14T04:11:11.163Z,92.80
2019-05-14T04:12:11.152Z,92.90
2019-05-14T04:13:11.173Z,93.10
2019-05-14T04:14:11.169Z,93.04
2019-05-14T04:15:11.139Z,93.00
2019-05-14T04:16:11.110Z,93.00
2019-05-14T04:17:15.450Z,93.00
2019-05-14T04:18:11.101Z,93.10
2019-05-14T04:19:11.100Z,93.21
2019-05-14T04:20:11.076Z,92.69
2019-05-14T04:21:11.065Z,93.00
2019-05-14T04:22:11.077Z,92.90
2019-05-14T04:23:11.053Z,93.00
2019-05-14T04:24:11.044Z,92.69
2019-05-14T04:25:11.398Z,92.69
2019-05-14T04:26:11.026Z,92.80
2019-05-14T04:27:12.959Z,93.00
2019-05-14T04:28:10.989Z,92.18
2019-05-14T04:29:11.009Z,93.00
2019-05-14T04:30:10.959Z,93.00
2019-05-14T04:31:10.985Z,92.90
2019-05-14T04:32:11.061Z,92.85
2019-05-14T04:33:10.937Z,92.85
2019-05-14T04:34:10.995Z,93.21
2019-05-14T04:35:10.904Z,92.13
2019-05-14T04:36:10.910Z,92.34
2019-05-14T04:37:10.888Z,92.24
2019-05-14T04:38:10.876Z,93.16
2019-05-14T04:39:10.886Z,92.61
2019-05-14T04:40:10.873Z,92.61
2019-05-14T04:41:10.859Z,91.93
2019-05-14T04:42:10.827Z,91.72
2019-05-14T04:43:10.828Z,91.05
2019-05-14T04:44:10.823Z,91.67
2019-05-14T04:45:11.503Z,91.36
2019-05-14T04:46:11.083Z,91.99
2019-05-14T04:47:30.132Z,91.47
2019-05-14T04:48:27.313Z,91.84
2019-05-14T04:49:10.781Z,91.99
2019-05-14T04:50:11.065Z,92.19
2019-05-14T04:51:10.748Z,90.95
2019-05-14T04:52:10.753Z,92.09
2019-05-14T04:53:10.714Z,92.15
2019-05-14T04:54:10.718Z,91.01
2019-05-14T04:55:10.724Z,90.70
2019-05-14T04:56:10.678Z,90.91
2019-05-14T04:57:10.922Z,90.50
2019-05-14T04:58:10.667Z,90.66
2019-05-14T04:59:10.837Z,90.14
2019-05-14T05:00:12.322Z,90.66
2019-05-14T05:01:10.650Z,90.25
2019-05-14T05:02:10.634Z,90.25
2019-05-14T05:03:12.715Z,89.69
2019-05-14T05:04:10.618Z,89.79
2019-05-14T05:06:19.799Z,88.47
2019-05-14T05:07:20.780Z,87.74
2019-05-14T05:08:20.756Z,87.50
2019-05-14T05:09:20.754Z,87.29
2019-05-14T05:10:20.749Z,86.88
2019-05-14T05:11:21.577Z,86.05
2019-05-14T05:12:20.719Z,86.05
2019-05-14T05:13:20.706Z,86.74
2019-05-14T05:14:23.760Z,85.67
2019-05-14T05:15:20.722Z,85.63
2019-05-14T05:16:20.677Z,84.91
2019-05-14T05:17:20.666Z,84.19
2019-05-14T05:18:20.655Z,83.67
2019-05-14T05:19:20.636Z,83.47
2019-05-14T05:20:20.646Z,82.60
2019-05-14T05:21:20.623Z,82.95
2019-05-14T05:22:20.653Z,83.53
2019-05-14T05:23:20.619Z,82.64
2019-05-14T05:24:20.614Z,83.40
2019-05-14T05:25:20.611Z,83.47
2019-05-14T05:26:20.595Z,83.47
2019-05-14T05:27:20.598Z,83.15
2019-05-14T05:28:20.555Z,83.47
2019-05-14T05:29:20.540Z,83.56
2019-05-14T05:30:20.535Z,83.32
2019-05-14T05:31:20.522Z,83.32
2019-05-14T05:32:20.500Z,82.87
2019-05-14T05:33:20.484Z,82.40
2019-05-14T05:34:20.491Z,82.60
2019-05-14T05:35:20.494Z,82.15
2019-05-14T05:36:20.498Z,82.60
2019-05-14T05:37:20.451Z,81.88
2019-05-14T05:38:20.439Z,82.50
2019-05-14T05:39:20.435Z,82.40
2019-05-14T05:40:20.420Z,82.70
2019-05-14T05:41:20.440Z,81.95
2019-05-14T05:42:20.398Z,81.53
2019-05-14T05:43:20.684Z,81.60
2019-05-14T05:44:20.377Z,81.25
2019-05-14T05:45:20.761Z,80.43
2019-05-14T05:46:20.368Z,80.02
2019-05-14T05:47:20.365Z,79.88
2019-05-14T05:48:20.392Z,79.98
2019-05-14T05:49:20.317Z,79.77
2019-05-14T05:50:20.317Z,78.30
2019-05-14T05:51:20.306Z,78.40
2019-05-14T05:52:20.273Z,78.40
2019-05-14T05:53:20.267Z,78.20
2019-05-14T05:54:20.260Z,78.09
2019-05-14T05:55:20.262Z,77.99
2019-05-14T05:56:20.253Z,77.95
2019-05-14T05:57:20.364Z,77.95
2019-05-14T05:58:20.215Z,76.79
2019-05-14T05:59:20.198Z,77.10
2019-05-14T06:00:20.202Z,76.62
2019-05-14T06:01:20.211Z,77.03
2019-05-14T06:02:20.187Z,76.79
2019-05-14T06:03:20.876Z,76.79
2019-05-14T06:04:20.149Z,76.58
2019-05-14T06:05:20.134Z,76.55
2019-05-14T06:06:20.145Z,76.24
2019-05-14T06:07:20.222Z,75.93
2019-05-14T06:08:20.104Z,76.17
2019-05-14T06:09:20.209Z,75.93
2019-05-14T06:10:20.083Z,76.28
2019-05-14T06:11:20.100Z,76.04
2019-05-14T06:12:20.336Z,76.34
2019-05-14T06:13:20.062Z,75.83
2019-05-14T06:14:20.039Z,75.08
2019-05-14T06:15:20.032Z,75.79
2019-05-14T06:16:20.096Z,74.91
2019-05-14T06:17:20.006Z,76.14
2019-05-14T06:18:22.165Z,76.14
2019-05-14T06:19:20.000Z,74.91
2019-05-14T06:20:20.003Z,75.11
2019-05-14T06:21:19.984Z,75.08
2019-05-14T06:22:19.974Z,74.87
2019-05-14T06:23:19.938Z,75.08
2019-05-14T06:24:19.942Z,74.57
2019-05-14T06:25:21.107Z,73.85
2019-05-14T06:26:19.932Z,74.22
2019-05-14T06:27:19.910Z,74.32
2019-05-14T06:28:20.914Z,73.64
2019-05-14T06:29:19.885Z,74.46
2019-05-14T06:30:19.971Z,74.80
2019-05-14T06:31:20.851Z,74.77
2019-05-14T06:32:19.851Z,74.57
2019-05-14T06:33:19.826Z,74.46
2019-05-14T06:34:19.828Z,73.85
2019-05-14T06:35:19.818Z,74.05
2019-05-14T06:36:19.945Z,74.22
2019-05-14T06:37:19.842Z,73.40
2019-05-14T06:38:19.781Z,73.40
2019-05-14T06:39:19.759Z,73.40
2019-05-14T06:40:19.762Z,73.30
2019-05-14T06:41:19.750Z,73.61
2019-05-14T06:42:19.748Z,73.23
2019-05-14T06:43:19.772Z,73.85
2019-05-14T06:44:19.709Z,74.12
2019-05-14T06:45:19.697Z,73.30
2019-05-14T06:46:19.757Z,73.36
2019-05-14T06:47:19.708Z,72.34
2019-05-14T06:48:30.766Z,72.44
2019-05-14T06:49:19.658Z,72.34
2019-05-14T06:50:20.527Z,71.73
2019-05-14T06:51:20.283Z,73.13
2019-05-14T06:52:19.665Z,72.31
2019-05-14T06:53:19.611Z,71.15
2019-05-14T06:54:19.821Z,71.66
2019-05-14T06:55:19.587Z,71.25
2019-05-14T06:56:21.664Z,71.12
2019-05-14T06:57:19.575Z,70.26
2019-05-14T06:58:20.476Z,69.75
2019-05-14T06:59:19.545Z,70.47
2019-05-14T07:00:19.541Z,69.45
2019-05-14T07:01:19.689Z,69.01
2019-05-14T07:02:19.579Z,69.31
2019-05-14T07:03:19.510Z,69.31
2019-05-14T07:04:19.499Z,69.34
2019-05-14T07:05:19.812Z,69.42
2019-05-14T07:07:29.972Z,68.19
2019-05-14T07:08:29.657Z,67.47
2019-05-14T07:09:29.642Z,67.85
2019-05-14T07:10:29.631Z,68.19
2019-05-14T07:11:29.615Z,69.07
2019-05-14T07:12:29.639Z,67.95
2019-05-14T07:13:29.614Z,67.65
2019-05-14T07:14:29.593Z,67.51
2019-05-14T07:15:29.578Z,67.51
2019-05-14T07:16:29.569Z,67.27
2019-05-14T07:17:30.087Z,66.77
2019-05-14T07:18:45.215Z,66.56
2019-05-14T07:19:29.796Z,66.15
2019-05-14T07:20:29.539Z,67.41
2019-05-14T07:21:29.512Z,66.56
2019-05-14T07:22:29.581Z,66.56
2019-05-14T07:23:29.502Z,65.71
2019-05-14T07:24:29.486Z,64.49
2019-05-14T07:25:29.481Z,65.34
2019-05-14T07:26:29.777Z,65.77
2019-05-14T07:27:29.464Z,66.25
2019-05-14T07:28:29.773Z,65.88
2019-05-14T07:29:29.543Z,66.08
2019-05-14T07:30:29.404Z,66.49
2019-05-14T07:31:29.837Z,66.05
2019-05-14T07:32:29.442Z,66.36
2019-05-14T07:33:29.617Z,66.22
2019-05-14T07:34:29.359Z,65.92
2019-05-14T07:35:29.386Z,65.58
2019-05-14T07:36:29.546Z,65.34
2019-05-14T07:37:29.491Z,64.43
2019-05-14T07:38:29.695Z,64.22
2019-05-14T07:39:29.403Z,63.89
2019-05-14T07:40:29.304Z,63.92
2019-05-14T07:41:29.288Z,64.25
2019-05-14T07:42:29.308Z,64.15
2019-05-14T07:43:29.283Z,64.84
2019-05-14T07:44:29.773Z,64.15
2019-05-14T07:45:29.242Z,64.22
2019-05-14T07:46:29.267Z,63.28
2019-05-14T07:47:29.313Z,62.26
2019-05-14T07:48:29.216Z,61.72
2019-05-14T07:49:29.303Z,61.52
2019-05-14T07:50:29.392Z,62.13
2019-05-14T07:51:29.174Z,61.93
2019-05-14T07:52:29.180Z,62.77
2019-05-14T07:53:38.803Z,63.38
2019-05-14T07:54:29.135Z,62.77
2019-05-14T07:55:29.139Z,62.66
2019-05-14T07:56:29.911Z,63.18
2019-05-14T07:57:29.170Z,62.26
2019-05-14T07:58:29.285Z,61.93
2019-05-14T07:59:32.138Z,61.69
2019-05-14T08:00:29.918Z,61.61
2019-05-14T08:01:29.912Z,61.90
2019-05-14T08:02:29.180Z,61.08
2019-05-14T08:03:29.907Z,60.27
2019-05-14T08:04:29.204Z,61.59
2019-05-14T08:05:29.026Z,60.47
2019-05-14T08:06:29.129Z,60.06
2019-05-14T08:07:30.148Z,60.77
2019-05-14T08:08:29.478Z,60.14
2019-05-14T08:09:29.033Z,60.03
2019-05-14T08:10:29.097Z,58.78
2019-05-14T08:11:28.951Z,59.53
2019-05-14T08:12:28.943Z,59.73
2019-05-14T08:13:28.984Z,59.01
2019-05-14T08:14:33.644Z,59.25
2019-05-14T08:15:28.905Z,60.63
2019-05-14T08:16:29.219Z,61.98
2019-05-14T08:17:28.890Z,61.98
2019-05-14T08:18:29.356Z,60.96
2019-05-14T08:19:31.398Z,60.73
2019-05-14T08:20:28.852Z,61.61
2019-05-14T08:21:29.302Z,60.50
2019-05-14T08:22:29.280Z,60.06
2019-05-14T08:23:28.856Z,59.01
2019-05-14T08:24:30.021Z,59.42
2019-05-14T08:25:28.803Z,59.19
2019-05-14T08:26:29.471Z,58.89
2019-05-14T08:27:31.078Z,57.95
2019-05-14T08:28:29.134Z,57.95
2019-05-14T08:29:28.835Z,58.48
2019-05-14T08:30:28.782Z,58.44
2019-05-14T08:31:29.404Z,59.96
2019-05-14T08:32:28.713Z,59.32
2019-05-14T08:33:29.134Z,57.79
2019-05-14T08:34:32.211Z,57.90
2019-05-14T08:35:29.105Z,57.59
2019-05-14T08:36:28.792Z,56.77
2019-05-14T08:37:28.673Z,57.36
2019-05-14T08:38:30.534Z,58.17
2019-05-14T08:39:28.753Z,57.36
2019-05-14T08:40:28.833Z,57.79
2019-05-14T08:41:28.950Z,57.92
2019-05-14T08:42:29.167Z,59.45
2019-05-14T08:43:29.365Z,58.97
2019-05-14T08:44:29.348Z,59.55
2019-05-14T08:45:28.581Z,58.13
2019-05-14T08:46:28.570Z,57.62
2019-05-14T08:47:29.185Z,57.82
2019-05-14T08:48:30.475Z,58.03
2019-05-14T08:49:39.047Z,57.08
2019-05-14T08:50:28.514Z,57.29
2019-05-14T08:51:29.555Z,56.88
2019-05-14T08:52:28.961Z,56.88
2019-05-14T08:53:28.932Z,55.81
2019-05-14T08:54:28.575Z,55.18
2019-05-14T08:55:29.632Z,53.52
2019-05-14T08:56:28.458Z,51.21
2019-05-14T08:57:29.242Z,52.33
2019-05-14T08:58:29.911Z,52.30
2019-05-14T08:59:28.798Z,52.48
2019-05-14T09:00:28.696Z,52.38
2019-05-14T09:01:29.239Z,50.98
2019-05-14T09:02:28.731Z,51.31
2019-05-14T09:03:28.925Z,51.31
2019-05-14T09:04:30.338Z,51.44
2019-05-14T09:05:28.749Z,52.28
2019-05-14T09:06:29.002Z,52.50
2019-05-14T09:08:38.942Z,51.56
2019-05-14T09:09:38.536Z,51.44
2019-05-14T09:10:40.268Z,50.62
2019-05-14T09:11:45.258Z,50.93
2019-05-14T09:12:38.906Z,49.51
2019-05-14T09:13:38.578Z,50.24
2019-05-14T09:14:38.955Z,50.14
2019-05-14T09:15:38.603Z,50.01
2019-05-14T09:16:46.462Z,48.65
2019-05-14T09:17:38.989Z,47.83
2019-05-14T09:18:38.879Z,46.98
2019-05-14T09:19:39.486Z,44.85
2019-05-14T09:20:38.535Z,45.68
2019-05-14T09:21:39.738Z,45.98
2019-05-14T09:22:39.762Z,45.43
2019-05-14T09:23:39.135Z,46.22
2019-05-14T09:24:38.887Z,45.42
2019-05-14T09:25:46.934Z,44.32
2019-05-14T09:26:39.096Z,45.74
2019-05-14T09:27:38.943Z,45.33
2019-05-14T09:28:39.192Z,45.84
2019-05-14T09:29:39.487Z,46.73
2019-05-14T09:30:38.328Z,47.31
2019-05-14T09:31:39.275Z,47.95
2019-05-14T09:32:38.989Z,47.95
2019-05-14T09:33:38.923Z,48.78
2019-05-14T09:34:39.314Z,48.43
2019-05-14T09:35:38.762Z,46.61
2019-05-14T09:36:39.526Z,46.81
2019-05-14T09:37:39.578Z,47.42
2019-05-14T09:38:42.336Z,46.97
2019-05-14T09:40:49.104Z,47.34
2019-05-14T09:41:49.954Z,47.95
2019-05-14T09:42:50.247Z,48.55
2019-05-14T09:43:49.852Z,48.76
2019-05-14T09:44:49.893Z,48.46
2019-05-14T09:45:49.814Z,48.68
2019-05-14T09:46:50.626Z,48.15
2019-05-14T09:47:50.745Z,48.35
2019-05-14T09:48:49.812Z,48.76
2019-05-14T09:49:49.797Z,48.68
2019-05-14T09:50:49.760Z,48.71
2019-05-14T09:51:50.631Z,48.71
2019-05-14T09:52:49.746Z,49.92
2019-05-14T09:53:49.731Z,48.50
2019-05-14T09:54:49.798Z,48.27
2019-05-14T09:55:49.698Z,48.71
2019-05-14T09:56:50.034Z,48.91
2019-05-14T09:57:49.681Z,49.41
2019-05-14T09:58:49.916Z,49.21
2019-05-14T09:59:53.165Z,47.28
2019-05-14T10:00:49.653Z,46.49
2019-05-14T10:01:50.642Z,46.70
2019-05-14T10:02:49.651Z,45.98
2019-05-14T10:03:49.852Z,45.58
2019-05-14T10:04:49.639Z,45.98
2019-05-14T10:05:50.129Z,45.66
2019-05-14T10:06:49.580Z,44.82
2019-05-14T10:07:49.774Z,46.63
2019-05-14T10:08:49.572Z,44.58
2019-05-14T10:09:49.583Z,44.07
2019-05-14T10:10:49.565Z,45.27
2019-05-14T10:11:49.539Z,44.07
2019-05-14T10:12:56.010Z,44.96
2019-05-14T10:13:51.368Z,44.66
2019-05-14T10:14:49.527Z,44.15
2019-05-14T10:15:49.488Z,43.95
2019-05-14T10:16:49.469Z,44.36
2019-05-14T10:17:50.144Z,44.74
2019-05-14T10:18:52.719Z,44.03
2019-05-14T10:19:49.984Z,44.15
2019-05-14T10:20:49.659Z,45.62
2019-05-14T10:21:49.508Z,45.51
2019-05-14T10:22:49.432Z,45.62
2019-05-14T10:23:49.418Z,45.39
2019-05-14T10:24:49.511Z,44.48
2019-05-14T10:25:49.416Z,44.18
2019-05-14T10:26:49.379Z,43.47
2019-05-14T10:27:49.631Z,44.34
2019-05-14T10:28:49.342Z,42.41
2019-05-14T10:29:49.353Z,43.41
2019-05-14T10:30:49.323Z,41.89
2019-05-14T10:31:50.033Z,42.07
2019-05-14T10:32:49.403Z,41.75
2019-05-14T10:33:49.285Z,42.41
2019-05-14T10:34:49.292Z,43.38
2019-05-14T10:35:49.304Z,44.07
2019-05-14T10:36:49.275Z,44.18
2019-05-14T10:37:49.305Z,44.42
2019-05-14T10:38:49.261Z,43.99
2019-05-14T10:39:49.234Z,44.40
2019-05-14T10:40:49.199Z,44.18
2019-05-14T10:41:49.199Z,42.88
2019-05-14T10:42:49.560Z,43.38
2019-05-14T10:43:49.814Z,43.30
2019-05-14T10:44:49.211Z,43.41
2019-05-14T10:45:49.700Z,43.79
2019-05-14T10:46:49.146Z,43.99
2019-05-14T10:47:49.503Z,43.26
2019-05-14T10:48:49.116Z,42.33
2019-05-14T10:49:49.135Z,43.55
2019-05-14T10:50:59.058Z,42.82
2019-05-14T10:51:49.093Z,40.57
2019-05-14T10:52:49.152Z,41.00
2019-05-14T10:53:49.283Z,42.13
2019-05-14T10:54:55.726Z,41.91
2019-05-14T10:55:49.100Z,42.31
2019-05-14T10:56:49.529Z,40.89
2019-05-14T10:57:54.118Z,42.21
2019-05-14T10:58:49.292Z,42.41
2019-05-14T10:59:49.020Z,42.41
2019-05-14T11:00:49.585Z,42.82
2019-05-14T11:01:48.972Z,42.58
2019-05-14T11:02:49.265Z,41.44
2019-05-14T11:03:48.950Z,41.56
2019-05-14T11:04:48.997Z,40.35
2019-05-14T11:05:48.994Z,40.84
2019-05-14T11:06:49.175Z,40.21
2019-05-14T11:07:48.925Z,41.14
2019-05-14T11:08:49.427Z,40.75
2019-05-14T11:09:48.956Z,40.98
2019-05-14T11:10:49.841Z,41.58
2019-05-14T11:11:48.855Z,40.95
2019-05-14T11:12:50.676Z,38.84
2019-05-14T11:13:48.831Z,40.39
2019-05-14T11:14:49.379Z,41.38
2019-05-14T11:15:48.950Z,40.75
2019-05-14T11:16:48.850Z,40.33
2019-05-14T11:17:49.002Z,38.92
2019-05-14T11:18:49.775Z,40.33
2019-05-14T11:19:48.789Z,40.33
2019-05-14T11:20:51.423Z,40.31
2019-05-14T11:21:48.743Z,41.00
2019-05-14T11:22:49.246Z,39.89
2019-05-14T11:23:49.237Z,39.91
2019-05-14T11:24:49.287Z,40.13
2019-05-14T11:25:48.901Z,40.84
2019-05-14T11:26:49.032Z,40.66
2019-05-14T11:27:49.354Z,42.37
2019-05-14T11:28:49.246Z,42.37
2019-05-14T11:29:49.233Z,42.33
2019-05-14T11:30:49.404Z,40.70
2019-05-14T11:31:48.743Z,40.82
2019-05-14T11:32:49.325Z,41.04
2019-05-14T11:33:49.781Z,42.17
2019-05-14T11:34:48.613Z,40.84
2019-05-14T11:35:48.607Z,40.75
2019-05-14T11:36:49.668Z,40.47
2019-05-14T11:37:48.572Z,41.16
2019-05-14T11:38:50.859Z,41.64
2019-05-14T11:39:48.874Z,38.61
2019-05-14T11:41:59.006Z,39.32
2019-05-14T11:42:59.470Z,39.42
2019-05-14T11:43:59.422Z,40.01
2019-05-14T11:44:59.185Z,39.39
2019-05-14T11:45:59.530Z,38.46
2019-05-14T11:47:02.445Z,38.48
2019-05-14T11:47:59.155Z,38.61
2019-05-14T11:48:59.562Z,38.97
2019-05-14T11:49:59.305Z,40.09
2019-05-14T11:50:59.625Z,39.01
2019-05-14T11:52:06.801Z,40.12
2019-05-14T11:52:59.105Z,40.31
2019-05-14T11:53:59.085Z,39.09
2019-05-14T11:54:59.080Z,39.58
2019-05-14T11:55:59.110Z,38.93
2019-05-14T11:56:59.095Z,38.35
2019-05-14T11:57:59.063Z,38.63
2019-05-14T11:58:59.201Z,38.84
2019-05-14T11:59:59.036Z,39.30
2019-05-14T12:00:59.010Z,38.17
2019-05-14T12:01:59.463Z,37.26
2019-05-14T12:02:58.986Z,38.71
2019-05-14T12:03:59.762Z,38.26
2019-05-14T12:04:58.956Z,37.94
2019-05-14T12:05:58.983Z,38.14
2019-05-14T12:06:59.339Z,38.53
2019-05-14T12:07:58.934Z,38.39
2019-05-14T12:08:58.930Z,37.38
2019-05-14T12:09:58.918Z,37.60
2019-05-14T12:10:59.380Z,37.90
2019-05-14T12:11:58.952Z,38.70
2019-05-14T12:12:58.882Z,37.97
2019-05-14T12:13:59.897Z,38.06
2019-05-14T12:14:58.851Z,35.82
2019-05-14T12:15:59.174Z,37.31
2019-05-14T12:16:59.984Z,35.70
2019-05-14T12:17:59.715Z,35.61
2019-05-14T12:18:59.149Z,36.96
2019-05-14T12:19:59.494Z,37.46
2019-05-14T12:20:59.361Z,36.46
2019-05-14T12:22:07.034Z,37.97
2019-05-14T12:22:59.251Z,36.55
2019-05-14T12:24:04.331Z,35.85
2019-05-14T12:24:58.729Z,37.60
2019-05-14T12:25:58.923Z,38.21
2019-05-14T12:26:58.838Z,38.49
2019-05-14T12:27:59.048Z,36.76
2019-05-14T12:28:59.404Z,36.25
2019-05-14T12:29:59.817Z,36.54
2019-05-14T12:30:58.675Z,36.64
2019-05-14T12:31:58.749Z,36.13
2019-05-14T12:32:59.141Z,35.92
2019-05-14T12:33:58.641Z,35.80
2019-05-14T12:34:59.361Z,35.38
2019-05-14T12:36:00.526Z,35.39
2019-05-14T12:36:58.625Z,34.49
2019-05-14T12:37:58.744Z,35.50
2019-05-14T12:38:59.249Z,34.77
2019-05-14T12:39:59.052Z,33.26
2019-05-14T12:40:58.644Z,33.98
2019-05-14T12:41:58.563Z,34.28
2019-05-14T12:42:59.282Z,35.10
2019-05-14T12:43:59.054Z,34.47
2019-05-14T12:44:58.716Z,34.97
2019-05-14T12:45:59.331Z,34.76
2019-05-14T12:46:58.848Z,35.14
2019-05-14T12:47:58.629Z,34.77
2019-05-14T12:48:58.966Z,34.77
2019-05-14T12:49:58.774Z,35.28
2019-05-14T12:50:59.447Z,35.19
2019-05-14T12:51:59.231Z,35.90
2019-05-14T12:52:58.877Z,35.30
2019-05-14T12:53:58.480Z,36.00
2019-05-14T12:54:59.739Z,35.97
2019-05-14T12:55:58.392Z,36.10
2019-05-14T12:56:58.411Z,36.13
2019-05-14T12:57:59.771Z,36.84
2019-05-14T12:58:58.466Z,36.25
2019-05-14T12:59:58.398Z,36.24
2019-05-14T13:00:59.479Z,36.94